createdAt,value
2023-05-16T00:00:42.662Z,986.46
2023-05-16T00:01:42.715Z,986.41
2023-05-16T00:02:42.815Z,986.45
2023-05-16T00:03:42.755Z,986.43
2023-05-16T00:04:42.655Z,986.35
2023-05-16T00:05:42.608Z,986.43
2023-05-16T00:06:42.627Z,986.46
2023-05-16T00:07:42.580Z,986.43
2023-05-16T00:08:42.597Z,986.40
2023-05-16T00:09:42.570Z,986.42
2023-05-16T00:10:42.554Z,986.44
2023-05-16T00:11:42.572Z,986.40
2023-05-16T00:12:42.606Z,986.38
2023-05-16T00:13:42.534Z,986.39
2023-05-16T00:14:42.510Z,986.38
2023-05-16T00:15:42.581Z,986.35
2023-05-16T00:16:42.585Z,986.37
2023-05-16T00:17:42.526Z,986.36
2023-05-16T00:18:42.507Z,986.29
2023-05-16T00:19:42.507Z,986.28
2023-05-16T00:20:42.470Z,986.36
2023-05-16T00:21:42.448Z,986.31
2023-05-16T00:22:42.428Z,986.36
2023-05-16T00:23:42.467Z,986.34
2023-05-16T00:24:42.426Z,986.37
2023-05-16T00:25:42.393Z,986.40
2023-05-16T00:26:42.402Z,986.39
2023-05-16T00:27:42.379Z,986.39
2023-05-16T00:28:42.390Z,986.52
2023-05-16T00:29:42.387Z,986.47
2023-05-16T00:30:42.342Z,986.55
2023-05-16T00:31:42.347Z,986.50
2023-05-16T00:32:43.347Z,986.54
2023-05-16T00:33:42.339Z,986.58
2023-05-16T00:34:42.328Z,986.50
2023-05-16T00:35:42.304Z,986.46
2023-05-16T00:36:42.308Z,986.51
2023-05-16T00:37:42.294Z,986.52
2023-05-16T00:38:42.316Z,986.53
2023-05-16T00:39:42.270Z,986.52
2023-05-16T00:40:42.260Z,986.50
2023-05-16T00:41:42.244Z,986.50
2023-05-16T00:42:43.259Z,986.52
2023-05-16T00:43:42.229Z,986.52
2023-05-16T00:44:42.234Z,986.49
2023-05-16T00:45:42.208Z,986.52
2023-05-16T00:46:42.339Z,986.48
2023-05-16T00:47:42.273Z,986.51
2023-05-16T00:48:42.236Z,986.52
2023-05-16T00:49:42.178Z,986.51
2023-05-16T00:50:42.155Z,986.46
2023-05-16T00:51:42.220Z,986.50
2023-05-16T00:52:42.135Z,986.50
2023-05-16T00:53:42.127Z,986.45
2023-05-16T00:54:42.145Z,986.41
2023-05-16T00:55:42.156Z,986.41
2023-05-16T00:56:42.111Z,986.42
2023-05-16T00:57:42.070Z,986.45
2023-05-16T00:58:42.089Z,986.48
2023-05-16T00:59:42.070Z,986.46
2023-05-16T01:00:42.073Z,986.43
2023-05-16T01:01:42.066Z,986.46
2023-05-16T01:02:42.100Z,986.46
2023-05-16T01:03:42.113Z,986.46
2023-05-16T01:04:42.016Z,986.47
2023-05-16T01:05:42.022Z,986.46
2023-05-16T01:06:41.985Z,986.46
2023-05-16T01:07:41.980Z,986.51
2023-05-16T01:08:41.990Z,986.46
2023-05-16T01:09:41.979Z,986.49
2023-05-16T01:10:41.963Z,986.48
2023-05-16T01:11:41.943Z,986.45
2023-05-16T01:12:41.928Z,986.50
2023-05-16T01:13:41.944Z,986.50
2023-05-16T01:14:41.919Z,986.50
2023-05-16T01:15:41.920Z,986.50
2023-05-16T01:16:41.906Z,986.50
2023-05-16T01:17:41.945Z,986.58
2023-05-16T01:18:41.939Z,986.57
2023-05-16T01:19:41.927Z,986.58
2023-05-16T01:20:41.896Z,986.64
2023-05-16T01:21:41.840Z,986.60
2023-05-16T01:22:41.853Z,986.60
2023-05-16T01:23:41.854Z,986.58
2023-05-16T01:24:41.865Z,986.62
2023-05-16T01:25:41.803Z,986.61
2023-05-16T01:26:41.796Z,986.62
2023-05-16T01:27:41.789Z,986.64
2023-05-16T01:28:41.801Z,986.61
2023-05-16T01:29:41.768Z,986.66
2023-05-16T01:30:41.755Z,986.67
2023-05-16T01:31:41.793Z,986.67
2023-05-16T01:32:41.808Z,986.65
2023-05-16T01:33:41.748Z,986.71
2023-05-16T01:34:41.719Z,986.65
2023-05-16T01:35:41.712Z,986.65
2023-05-16T01:36:41.706Z,986.66
2023-05-16T01:37:41.692Z,986.64
2023-05-16T01:38:41.668Z,986.71
2023-05-16T01:39:41.677Z,986.71
2023-05-16T01:40:41.668Z,986.79
2023-05-16T01:41:41.641Z,986.75
2023-05-16T01:42:41.655Z,986.77
2023-05-16T01:43:41.632Z,986.77
2023-05-16T01:44:41.614Z,986.81
2023-05-16T01:45:41.612Z,986.84
2023-05-16T01:46:41.614Z,986.87
2023-05-16T01:47:41.655Z,986.85
2023-05-16T01:48:41.585Z,986.86
2023-05-16T01:49:41.574Z,986.91
2023-05-16T01:50:41.553Z,986.86
2023-05-16T01:51:41.536Z,986.88
2023-05-16T01:52:41.618Z,986.90
2023-05-16T01:53:41.523Z,986.95
2023-05-16T01:54:41.512Z,986.89
2023-05-16T01:55:41.507Z,986.86
2023-05-16T01:56:41.514Z,986.92
2023-05-16T01:57:41.489Z,986.90
2023-05-16T01:58:41.465Z,986.85
2023-05-16T01:59:41.482Z,986.84
2023-05-16T02:00:41.551Z,986.85
2023-05-16T02:01:41.649Z,986.82
2023-05-16T02:02:41.471Z,986.89
2023-05-16T02:03:41.499Z,986.88
2023-05-16T02:04:41.408Z,986.88
2023-05-16T02:05:41.435Z,986.85
2023-05-16T02:06:41.394Z,986.86
2023-05-16T02:07:41.408Z,986.91
2023-05-16T02:08:41.394Z,986.80
2023-05-16T02:09:41.403Z,986.85
2023-05-16T02:10:41.344Z,986.89
2023-05-16T02:11:41.347Z,986.84
2023-05-16T02:12:41.357Z,986.86
2023-05-16T02:13:41.338Z,986.85
2023-05-16T02:14:41.371Z,986.88
2023-05-16T02:15:41.309Z,986.77
2023-05-16T02:16:41.314Z,986.80
2023-05-16T02:17:41.337Z,986.81
2023-05-16T02:18:41.321Z,986.71
2023-05-16T02:19:41.249Z,986.76
2023-05-16T02:20:41.281Z,986.80
2023-05-16T02:21:41.265Z,986.81
2023-05-16T02:22:41.238Z,986.79
2023-05-16T02:23:41.289Z,986.83
2023-05-16T02:24:41.224Z,986.80
2023-05-16T02:25:41.198Z,986.80
2023-05-16T02:26:41.193Z,986.85
2023-05-16T02:27:41.182Z,986.80
2023-05-16T02:28:41.157Z,986.82
2023-05-16T02:29:41.246Z,986.76
2023-05-16T02:30:41.180Z,986.83
2023-05-16T02:31:41.349Z,986.78
2023-05-16T02:32:41.265Z,986.83
2023-05-16T02:33:41.116Z,986.84
2023-05-16T02:34:41.130Z,986.83
2023-05-16T02:35:41.128Z,986.84
2023-05-16T02:36:41.092Z,986.77
2023-05-16T02:37:41.095Z,986.83
2023-05-16T02:38:41.073Z,986.86
2023-05-16T02:39:41.093Z,986.89
2023-05-16T02:40:41.057Z,986.89
2023-05-16T02:41:41.059Z,986.87
2023-05-16T02:42:42.028Z,986.86
2023-05-16T02:43:41.013Z,986.88
2023-05-16T02:44:41.031Z,986.83
2023-05-16T02:45:41.067Z,986.89
2023-05-16T02:46:41.072Z,986.82
2023-05-16T02:47:41.054Z,986.95
2023-05-16T02:48:40.998Z,986.89
2023-05-16T02:49:40.984Z,986.87
2023-05-16T02:50:40.948Z,986.89
2023-05-16T02:51:40.961Z,986.88
2023-05-16T02:52:40.939Z,986.87
2023-05-16T02:53:41.009Z,986.90
2023-05-16T02:54:40.909Z,986.81
2023-05-16T02:55:41.038Z,986.91
2023-05-16T02:56:40.900Z,986.92
2023-05-16T02:57:40.887Z,986.94
2023-05-16T02:58:40.872Z,986.88
2023-05-16T02:59:40.873Z,986.89
2023-05-16T03:00:40.888Z,986.92
2023-05-16T03:01:40.835Z,986.90
2023-05-16T03:02:40.877Z,986.92
2023-05-16T03:03:40.929Z,986.92
2023-05-16T03:04:40.831Z,986.89
2023-05-16T03:05:40.800Z,986.96
2023-05-16T03:06:40.777Z,987.00
2023-05-16T03:07:40.853Z,986.98
2023-05-16T03:08:40.794Z,986.99
2023-05-16T03:09:40.769Z,986.97
2023-05-16T03:10:40.768Z,987.02
2023-05-16T03:11:40.753Z,986.95
2023-05-16T03:12:40.734Z,987.02
2023-05-16T03:13:40.736Z,986.99
2023-05-16T03:14:40.700Z,986.94
2023-05-16T03:15:40.701Z,986.96
2023-05-16T03:16:40.734Z,987.01
2023-05-16T03:17:40.742Z,986.98
2023-05-16T03:18:40.702Z,987.00
2023-05-16T03:19:40.659Z,987.00
2023-05-16T03:20:40.656Z,987.00
2023-05-16T03:21:40.652Z,987.02
2023-05-16T03:22:40.722Z,987.07
2023-05-16T03:23:40.621Z,987.04
2023-05-16T03:24:40.642Z,986.95
2023-05-16T03:25:40.598Z,986.99
2023-05-16T03:26:40.587Z,986.99
2023-05-16T03:27:40.580Z,987.03
2023-05-16T03:28:40.568Z,987.06
2023-05-16T03:29:40.549Z,987.05
2023-05-16T03:30:41.577Z,987.04
2023-05-16T03:31:40.652Z,987.05
2023-05-16T03:32:40.569Z,987.09
2023-05-16T03:33:40.546Z,987.07
2023-05-16T03:34:40.507Z,987.14
2023-05-16T03:35:40.548Z,987.12
2023-05-16T03:36:40.497Z,987.14
2023-05-16T03:37:40.488Z,987.13
2023-05-16T03:38:40.482Z,987.17
2023-05-16T03:39:40.478Z,987.24
2023-05-16T03:40:40.468Z,987.20
2023-05-16T03:41:40.446Z,987.26
2023-05-16T03:42:40.428Z,987.20
2023-05-16T03:43:40.435Z,987.23
2023-05-16T03:44:40.440Z,987.23
2023-05-16T03:45:40.505Z,987.24
2023-05-16T03:46:40.402Z,987.31
2023-05-16T03:47:40.444Z,987.26
2023-05-16T03:48:40.384Z,987.25
2023-05-16T03:49:40.384Z,987.27
2023-05-16T03:50:41.143Z,987.29
2023-05-16T03:51:41.366Z,987.30
2023-05-16T03:52:40.341Z,987.33
2023-05-16T03:53:40.339Z,987.35
2023-05-16T03:54:41.365Z,987.33
2023-05-16T03:55:40.312Z,987.30
2023-05-16T03:56:40.302Z,987.35
2023-05-16T03:57:40.330Z,987.37
2023-05-16T03:58:40.281Z,987.35
2023-05-16T03:59:40.309Z,987.36
2023-05-16T04:00:40.264Z,987.34
2023-05-16T04:01:40.289Z,987.32
2023-05-16T04:02:40.390Z,987.35
2023-05-16T04:03:40.236Z,987.37
2023-05-16T04:04:40.223Z,987.39
2023-05-16T04:05:40.276Z,987.36
2023-05-16T04:06:40.202Z,987.40
2023-05-16T04:07:40.197Z,987.38
2023-05-16T04:08:40.171Z,987.46
2023-05-16T04:09:40.197Z,987.44
2023-05-16T04:10:40.174Z,987.41
2023-05-16T04:11:40.147Z,987.45
2023-05-16T04:12:41.146Z,987.45
2023-05-16T04:13:40.179Z,987.42
2023-05-16T04:14:40.117Z,987.47
2023-05-16T04:15:40.131Z,987.47
2023-05-16T04:16:40.120Z,987.49
2023-05-16T04:17:40.184Z,987.49
2023-05-16T04:18:40.119Z,987.49
2023-05-16T04:19:40.081Z,987.56
2023-05-16T04:20:40.057Z,987.53
2023-05-16T04:21:40.035Z,987.59
2023-05-16T04:22:40.140Z,987.61
2023-05-16T04:23:40.037Z,987.64
2023-05-16T04:24:40.024Z,987.57
2023-05-16T04:25:40.007Z,987.63
2023-05-16T04:26:40.006Z,987.61
2023-05-16T04:27:39.992Z,987.55
2023-05-16T04:28:39.992Z,987.56
2023-05-16T04:29:39.982Z,987.49
2023-05-16T04:30:39.966Z,987.57
2023-05-16T04:31:40.023Z,987.56
2023-05-16T04:32:39.953Z,987.56
2023-05-16T04:33:39.928Z,987.58
2023-05-16T04:34:40.563Z,987.57
2023-05-16T04:35:40.923Z,987.62
2023-05-16T04:36:39.890Z,987.68
2023-05-16T04:37:39.921Z,987.60
2023-05-16T04:38:39.890Z,987.74
2023-05-16T04:39:39.895Z,987.66
2023-05-16T04:40:39.867Z,987.65
2023-05-16T04:41:39.873Z,987.66
2023-05-16T04:42:39.846Z,987.73
2023-05-16T04:43:39.835Z,987.71
2023-05-16T04:44:39.829Z,987.76
2023-05-16T04:46:11.775Z,987.71
2023-05-16T04:46:39.863Z,987.69
2023-05-16T04:47:39.896Z,987.78
2023-05-16T04:48:39.798Z,987.81
2023-05-16T04:49:39.787Z,987.84
2023-05-16T04:50:39.778Z,987.83
2023-05-16T04:51:39.775Z,987.88
2023-05-16T04:52:39.803Z,987.86
2023-05-16T04:53:39.746Z,987.89
2023-05-16T04:54:39.778Z,987.93
2023-05-16T04:55:39.737Z,987.94
2023-05-16T04:56:39.732Z,987.94
2023-05-16T04:57:39.813Z,987.99
2023-05-16T04:58:42.276Z,988.03
2023-05-16T04:59:39.715Z,987.94
2023-05-16T05:00:40.673Z,988.01
2023-05-16T05:01:39.834Z,988.01
2023-05-16T05:02:39.739Z,987.98
2023-05-16T05:03:39.647Z,987.99
2023-05-16T05:04:39.730Z,988.05
2023-05-16T05:05:39.672Z,987.98
2023-05-16T05:06:39.617Z,987.97
2023-05-16T05:07:39.612Z,988.00
2023-05-16T05:08:39.601Z,988.02
2023-05-16T05:09:39.600Z,988.07
2023-05-16T05:10:39.613Z,988.06
2023-05-16T05:11:39.607Z,988.08
2023-05-16T05:12:39.574Z,988.07
2023-05-16T05:13:39.560Z,988.05
2023-05-16T05:14:39.585Z,988.05
2023-05-16T05:15:39.549Z,988.09
2023-05-16T05:16:39.563Z,988.08
2023-05-16T05:17:39.565Z,988.16
2023-05-16T05:18:39.600Z,988.10
2023-05-16T05:19:39.598Z,988.11
2023-05-16T05:20:39.472Z,988.11
2023-05-16T05:21:39.482Z,988.17
2023-05-16T05:22:39.470Z,988.15
2023-05-16T05:23:39.464Z,988.15
2023-05-16T05:24:39.433Z,988.15
2023-05-16T05:25:39.447Z,988.20
2023-05-16T05:26:39.430Z,988.23
2023-05-16T05:27:39.436Z,988.25
2023-05-16T05:28:39.961Z,988.20
2023-05-16T05:29:39.389Z,988.25
2023-05-16T05:30:41.232Z,988.26
2023-05-16T05:31:39.494Z,988.26
2023-05-16T05:32:39.444Z,988.33
2023-05-16T05:33:39.353Z,988.33
2023-05-16T05:34:39.404Z,988.25
2023-05-16T05:35:39.353Z,988.26
2023-05-16T05:36:39.344Z,988.30
2023-05-16T05:37:39.308Z,988.25
2023-05-16T05:38:39.289Z,988.28
2023-05-16T05:39:39.333Z,988.28
2023-05-16T05:40:39.273Z,988.34
2023-05-16T05:41:39.283Z,988.34
2023-05-16T05:42:39.262Z,988.37
2023-05-16T05:43:39.242Z,988.34
2023-05-16T05:44:39.235Z,988.36
2023-05-16T05:45:39.304Z,988.30
2023-05-16T05:46:39.229Z,988.31
2023-05-16T05:47:39.267Z,988.34
2023-05-16T05:48:39.227Z,988.37
2023-05-16T05:49:39.184Z,988.33
2023-05-16T05:50:39.220Z,988.35
2023-05-16T05:51:39.172Z,988.32
2023-05-16T05:52:39.156Z,988.30
2023-05-16T05:53:40.134Z,988.38
2023-05-16T05:54:39.162Z,988.36
2023-05-16T05:55:39.157Z,988.41
2023-05-16T05:56:40.118Z,988.36
2023-05-16T05:57:39.124Z,988.31
2023-05-16T05:58:39.105Z,988.39
2023-05-16T05:59:39.102Z,988.38
2023-05-16T06:00:39.089Z,988.37
2023-05-16T06:01:39.097Z,988.42
2023-05-16T06:02:39.176Z,988.39
2023-05-16T06:03:39.105Z,988.41
2023-05-16T06:04:39.035Z,988.43
2023-05-16T06:05:39.069Z,988.37
2023-05-16T06:06:39.001Z,988.43
2023-05-16T06:07:39.048Z,988.45
2023-05-16T06:08:39.020Z,988.46
2023-05-16T06:09:38.998Z,988.41
2023-05-16T06:10:38.971Z,988.48
2023-05-16T06:11:38.963Z,988.44
2023-05-16T06:12:38.956Z,988.49
2023-05-16T06:13:38.964Z,988.57
2023-05-16T06:14:38.968Z,988.50
2023-05-16T06:15:38.925Z,988.52
2023-05-16T06:16:38.953Z,988.58
2023-05-16T06:17:38.991Z,988.50
2023-05-16T06:18:38.938Z,988.59
2023-05-16T06:19:38.927Z,988.50
2023-05-16T06:20:38.931Z,988.56
2023-05-16T06:21:38.876Z,988.55
2023-05-16T06:22:38.849Z,988.62
2023-05-16T06:23:39.847Z,988.65
2023-05-16T06:24:38.874Z,988.57
2023-05-16T06:25:38.839Z,988.63
2023-05-16T06:26:38.835Z,988.60
2023-05-16T06:27:38.857Z,988.62
2023-05-16T06:28:38.824Z,988.70
2023-05-16T06:29:38.792Z,988.73
2023-05-16T06:30:38.813Z,988.67
2023-05-16T06:31:38.804Z,988.70
2023-05-16T06:32:38.784Z,988.75
2023-05-16T06:33:38.775Z,988.74
2023-05-16T06:34:38.772Z,988.70
2023-05-16T06:35:38.750Z,988.74
2023-05-16T06:36:38.752Z,988.71
2023-05-16T06:37:39.618Z,988.79
2023-05-16T06:38:38.739Z,988.77
2023-05-16T06:39:38.702Z,988.81
2023-05-16T06:40:38.746Z,988.74
2023-05-16T06:41:38.682Z,988.78
2023-05-16T06:42:38.877Z,988.79
2023-05-16T06:43:38.706Z,988.74
2023-05-16T06:44:38.662Z,988.76
2023-05-16T06:45:38.666Z,988.81
2023-05-16T06:46:38.692Z,988.75
2023-05-16T06:47:38.706Z,988.70
2023-05-16T06:48:39.619Z,988.77
2023-05-16T06:49:38.635Z,988.74
2023-05-16T06:50:38.638Z,988.81
2023-05-16T06:51:38.569Z,988.85
2023-05-16T06:52:38.602Z,988.82
2023-05-16T06:53:38.565Z,988.84
2023-05-16T06:54:38.555Z,988.87
2023-05-16T06:55:38.528Z,988.85
2023-05-16T06:56:38.567Z,988.92
2023-05-16T06:57:38.557Z,988.95
2023-05-16T06:58:38.506Z,988.96
2023-05-16T06:59:38.503Z,988.95
2023-05-16T07:00:38.511Z,989.04
2023-05-16T07:01:38.519Z,989.03
2023-05-16T07:02:38.585Z,989.14
2023-05-16T07:03:39.540Z,989.12
2023-05-16T07:04:39.492Z,989.13
2023-05-16T07:05:38.445Z,989.14
2023-05-16T07:06:38.468Z,989.15
2023-05-16T07:07:38.430Z,989.21
2023-05-16T07:08:38.466Z,989.23
2023-05-16T07:09:38.432Z,989.20
2023-05-16T07:10:38.393Z,989.25
2023-05-16T07:11:38.423Z,989.24
2023-05-16T07:12:38.448Z,989.22
2023-05-16T07:13:38.393Z,989.27
2023-05-16T07:14:38.364Z,989.26
2023-05-16T07:15:38.355Z,989.32
2023-05-16T07:16:38.394Z,989.31
2023-05-16T07:17:38.368Z,989.22
2023-05-16T07:18:38.348Z,989.27
2023-05-16T07:19:38.315Z,989.34
2023-05-16T07:20:38.346Z,989.36
2023-05-16T07:21:38.317Z,989.33
2023-05-16T07:22:38.300Z,989.37
2023-05-16T07:23:38.303Z,989.31
2023-05-16T07:24:38.304Z,989.33
2023-05-16T07:25:38.288Z,989.32
2023-05-16T07:26:38.252Z,989.33
2023-05-16T07:27:38.271Z,989.28
2023-05-16T07:28:38.250Z,989.35
2023-05-16T07:29:38.210Z,989.24
2023-05-16T07:30:38.253Z,989.25
2023-05-16T07:31:38.230Z,989.31
2023-05-16T07:32:38.274Z,989.27
2023-05-16T07:33:38.184Z,989.34
2023-05-16T07:34:38.168Z,989.42
2023-05-16T07:35:38.187Z,989.33
2023-05-16T07:36:38.212Z,989.31
2023-05-16T07:37:38.121Z,989.40
2023-05-16T07:38:38.122Z,989.35
2023-05-16T07:39:38.132Z,989.43
2023-05-16T07:40:38.123Z,989.44
2023-05-16T07:41:38.105Z,989.43
2023-05-16T07:42:38.086Z,989.41
2023-05-16T07:43:38.158Z,989.48
2023-05-16T07:44:38.140Z,989.46
2023-05-16T07:45:38.101Z,989.45
2023-05-16T07:46:38.149Z,989.48
2023-05-16T07:47:38.262Z,989.54
2023-05-16T07:48:38.057Z,989.45
2023-05-16T07:49:38.042Z,989.44
2023-05-16T07:50:38.006Z,989.57
2023-05-16T07:51:37.988Z,989.55
2023-05-16T07:52:38.093Z,989.61
2023-05-16T07:53:37.978Z,989.55
2023-05-16T07:54:37.968Z,989.60
2023-05-16T07:55:37.972Z,989.71
2023-05-16T07:56:37.980Z,989.72
2023-05-16T07:57:37.993Z,989.72
2023-05-16T07:58:37.920Z,989.65
2023-05-16T07:59:38.073Z,989.71
2023-05-16T08:00:37.925Z,989.78
2023-05-16T08:01:37.949Z,989.80
2023-05-16T08:02:38.005Z,989.83
2023-05-16T08:03:38.278Z,989.75
2023-05-16T08:04:38.825Z,989.81
2023-05-16T08:05:37.923Z,989.89
2023-05-16T08:06:37.872Z,989.87
2023-05-16T08:07:37.869Z,989.86
2023-05-16T08:08:37.836Z,989.88
2023-05-16T08:09:37.844Z,989.88
2023-05-16T08:10:37.830Z,989.84
2023-05-16T08:11:37.793Z,989.87
2023-05-16T08:12:37.791Z,989.88
2023-05-16T08:13:37.809Z,989.90
2023-05-16T08:14:37.783Z,989.87
2023-05-16T08:15:37.817Z,989.91
2023-05-16T08:16:37.840Z,989.91
2023-05-16T08:17:37.753Z,989.92
2023-05-16T08:18:37.817Z,989.92
2023-05-16T08:19:37.766Z,989.91
2023-05-16T08:20:37.710Z,989.90
2023-05-16T08:21:37.703Z,989.91
2023-05-16T08:22:37.720Z,989.86
2023-05-16T08:23:37.667Z,989.91
2023-05-16T08:24:37.711Z,989.88
2023-05-16T08:25:37.685Z,989.81
2023-05-16T08:26:37.683Z,989.81
2023-05-16T08:27:37.663Z,989.90
2023-05-16T08:28:37.654Z,989.86
2023-05-16T08:29:37.673Z,989.92
2023-05-16T08:30:37.619Z,989.81
2023-05-16T08:31:37.675Z,989.90
2023-05-16T08:32:37.627Z,989.91
2023-05-16T08:33:37.632Z,989.91
2023-05-16T08:34:37.571Z,989.96
2023-05-16T08:35:37.557Z,989.94
2023-05-16T08:36:37.552Z,989.91
2023-05-16T08:37:37.548Z,989.93
2023-05-16T08:38:37.537Z,989.93
2023-05-16T08:39:37.510Z,989.94
2023-05-16T08:40:37.568Z,989.95
2023-05-16T08:41:37.548Z,989.97
2023-05-16T08:42:37.514Z,989.93
2023-05-16T08:43:37.466Z,990.05
2023-05-16T08:44:37.505Z,990.01
2023-05-16T08:45:37.469Z,989.99
2023-05-16T08:46:37.489Z,990.10
2023-05-16T08:47:37.587Z,990.12
2023-05-16T08:48:37.439Z,990.11
2023-05-16T08:49:37.504Z,990.13
2023-05-16T08:50:37.437Z,990.12
2023-05-16T08:51:37.417Z,990.02
2023-05-16T08:52:37.390Z,990.09
2023-05-16T08:53:37.391Z,990.11
2023-05-16T08:54:37.373Z,990.11
2023-05-16T08:55:37.360Z,990.13
2023-05-16T08:56:37.349Z,990.18
2023-05-16T08:57:37.365Z,990.16
2023-05-16T08:58:37.333Z,990.12
2023-05-16T08:59:37.323Z,990.10
2023-05-16T09:00:37.379Z,990.20
2023-05-16T09:01:37.544Z,990.18
2023-05-16T09:02:37.369Z,990.25
2023-05-16T09:03:37.350Z,990.11
2023-05-16T09:04:37.293Z,990.24
2023-05-16T09:05:37.314Z,990.15
2023-05-16T09:06:37.264Z,990.17
2023-05-16T09:07:37.278Z,990.15
2023-05-16T09:08:37.250Z,990.15
2023-05-16T09:09:37.207Z,990.19
2023-05-16T09:10:37.248Z,990.19
2023-05-16T09:11:37.336Z,990.20
2023-05-16T09:12:37.196Z,990.23
2023-05-16T09:13:37.187Z,990.21
2023-05-16T09:14:37.167Z,990.25
2023-05-16T09:15:37.206Z,990.22
2023-05-16T09:16:37.194Z,990.28
2023-05-16T09:17:40.200Z,990.22
2023-05-16T09:18:38.242Z,990.23
2023-05-16T09:19:37.274Z,990.25
2023-05-16T09:20:37.099Z,990.19
2023-05-16T09:21:37.100Z,990.18
2023-05-16T09:22:37.799Z,990.15
2023-05-16T09:23:37.506Z,990.18
2023-05-16T09:24:38.091Z,990.11
2023-05-16T09:25:37.386Z,990.16
2023-05-16T09:26:37.054Z,990.16
2023-05-16T09:27:37.044Z,990.15
2023-05-16T09:28:37.067Z,990.06
2023-05-16T09:29:41.858Z,990.10
2023-05-16T09:30:37.003Z,990.15
2023-05-16T09:31:37.074Z,990.19
2023-05-16T09:32:36.993Z,990.16
2023-05-16T09:33:36.978Z,990.16
2023-05-16T09:34:36.948Z,990.20
2023-05-16T09:35:44.253Z,990.20
2023-05-16T09:36:39.717Z,990.22
2023-05-16T09:37:36.932Z,990.25
2023-05-16T09:38:36.897Z,990.09
2023-05-16T09:39:36.895Z,990.15
2023-05-16T09:40:36.924Z,990.12
2023-05-16T09:41:36.881Z,990.20
2023-05-16T09:42:36.895Z,990.10
2023-05-16T09:43:38.239Z,990.12
2023-05-16T09:44:37.841Z,990.12
2023-05-16T09:45:37.041Z,990.18
2023-05-16T09:46:36.856Z,990.17
2023-05-16T09:47:36.843Z,990.10
2023-05-16T09:48:36.799Z,990.13
2023-05-16T09:49:36.793Z,990.14
2023-05-16T09:50:36.896Z,990.16
2023-05-16T09:51:36.793Z,990.11
2023-05-16T09:52:36.787Z,990.12
2023-05-16T09:53:36.785Z,990.14
2023-05-16T09:54:36.747Z,990.11
2023-05-16T09:55:36.735Z,990.10
2023-05-16T09:56:36.718Z,990.14
2023-05-16T09:57:36.729Z,990.21
2023-05-16T09:58:36.719Z,990.28
2023-05-16T09:59:36.688Z,990.26
2023-05-16T10:00:36.672Z,990.20
2023-05-16T10:01:36.755Z,990.27
2023-05-16T10:02:36.797Z,990.18
2023-05-16T10:03:36.793Z,990.19
2023-05-16T10:04:36.634Z,990.14
2023-05-16T10:05:36.661Z,990.15
2023-05-16T10:06:36.662Z,990.14
2023-05-16T10:07:36.617Z,990.23
2023-05-16T10:08:36.631Z,990.27
2023-05-16T10:09:36.582Z,990.23
2023-05-16T10:10:37.835Z,990.29
2023-05-16T10:11:36.591Z,990.21
2023-05-16T10:12:36.561Z,990.16
2023-05-16T10:13:36.556Z,990.13
2023-05-16T10:14:36.529Z,990.18
2023-05-16T10:15:36.538Z,990.22
2023-05-16T10:16:36.597Z,990.26
2023-05-16T10:17:36.587Z,990.14
2023-05-16T10:18:36.564Z,990.20
2023-05-16T10:19:36.493Z,990.15
2023-05-16T10:20:36.489Z,990.22
2023-05-16T10:21:36.480Z,990.16
2023-05-16T10:22:36.452Z,990.12
2023-05-16T10:23:36.478Z,990.14
2023-05-16T10:24:36.432Z,990.12
2023-05-16T10:25:36.428Z,990.14
2023-05-16T10:26:36.437Z,990.15
2023-05-16T10:27:36.496Z,990.12
2023-05-16T10:28:36.440Z,990.03
2023-05-16T10:29:46.578Z,990.13
2023-05-16T10:30:37.418Z,990.05
2023-05-16T10:31:36.426Z,990.12
2023-05-16T10:32:36.528Z,990.12
2023-05-16T10:33:36.366Z,990.10
2023-05-16T10:34:36.341Z,990.13
2023-05-16T10:35:36.379Z,990.09
2023-05-16T10:36:36.316Z,990.02
2023-05-16T10:37:36.322Z,990.06
2023-05-16T10:38:36.306Z,990.10
2023-05-16T10:39:36.317Z,990.12
2023-05-16T10:40:36.307Z,990.29
2023-05-16T10:41:36.267Z,990.20
2023-05-16T10:42:36.237Z,990.15
2023-05-16T10:43:36.296Z,990.24
2023-05-16T10:44:36.214Z,990.21
2023-05-16T10:45:36.223Z,990.21
2023-05-16T10:47:08.107Z,990.18
2023-05-16T10:47:36.189Z,990.18
2023-05-16T10:48:36.157Z,990.13
2023-05-16T10:49:36.144Z,990.07
2023-05-16T10:50:36.141Z,990.08
2023-05-16T10:51:36.209Z,990.08
2023-05-16T10:52:36.138Z,989.91
2023-05-16T10:53:36.110Z,990.05
2023-05-16T10:54:36.104Z,990.07
2023-05-16T10:55:36.123Z,990.11
2023-05-16T10:56:36.132Z,990.20
2023-05-16T10:57:36.076Z,990.18
2023-05-16T10:58:36.070Z,990.16
2023-05-16T10:59:36.046Z,990.14
2023-05-16T11:00:36.049Z,990.13
2023-05-16T11:01:36.122Z,990.10
2023-05-16T11:02:36.159Z,990.10
2023-05-16T11:03:36.133Z,990.05
2023-05-16T11:04:36.004Z,990.09
2023-05-16T11:05:35.994Z,990.18
2023-05-16T11:06:35.981Z,990.16
2023-05-16T11:07:35.994Z,990.15
2023-05-16T11:08:35.957Z,990.18
2023-05-16T11:09:35.945Z,990.07
2023-05-16T11:10:35.966Z,990.12
2023-05-16T11:11:35.945Z,990.18
2023-05-16T11:12:35.936Z,990.10
2023-05-16T11:13:35.904Z,990.12
2023-05-16T11:14:35.897Z,990.18
2023-05-16T11:15:35.913Z,990.15
2023-05-16T11:16:35.941Z,990.14
2023-05-16T11:17:37.030Z,990.18
2023-05-16T11:18:35.912Z,990.14
2023-05-16T11:19:35.841Z,990.19
2023-05-16T11:20:35.862Z,990.27
2023-05-16T11:21:35.822Z,990.33
2023-05-16T11:22:35.843Z,990.26
2023-05-16T11:23:35.817Z,990.19
2023-05-16T11:24:35.791Z,990.25
2023-05-16T11:25:35.786Z,990.19
2023-05-16T11:26:35.788Z,990.18
2023-05-16T11:27:35.805Z,990.23
2023-05-16T11:28:35.744Z,990.17
2023-05-16T11:29:35.760Z,990.26
2023-05-16T11:30:35.740Z,990.27
2023-05-16T11:31:35.761Z,990.19
2023-05-16T11:32:35.828Z,990.16
2023-05-16T11:33:35.735Z,990.10
2023-05-16T11:34:35.714Z,990.07
2023-05-16T11:35:35.683Z,990.03
2023-05-16T11:36:35.669Z,990.11
2023-05-16T11:37:35.657Z,989.99
2023-05-16T11:38:35.669Z,989.97
2023-05-16T11:39:35.741Z,990.00
2023-05-16T11:40:36.224Z,990.07
2023-05-16T11:41:35.628Z,990.07
2023-05-16T11:42:35.612Z,989.98
2023-05-16T11:43:35.681Z,990.08
2023-05-16T11:44:35.624Z,989.97
2023-05-16T11:45:35.618Z,990.11
2023-05-16T11:46:35.613Z,990.17
2023-05-16T11:47:35.662Z,990.18
2023-05-16T11:48:36.547Z,990.20
2023-05-16T11:49:36.558Z,990.21
2023-05-16T11:50:35.537Z,990.18
2023-05-16T11:51:35.537Z,990.23
2023-05-16T11:52:35.524Z,990.13
2023-05-16T11:53:35.632Z,990.20
2023-05-16T11:54:36.511Z,990.25
2023-05-16T11:56:36.507Z,990.23
2023-05-16T11:57:35.485Z,990.25
2023-05-16T11:58:35.456Z,990.24
2023-05-16T11:59:35.500Z,990.26
2023-05-16T12:00:35.439Z,990.27
2023-05-16T12:01:35.455Z,990.25
2023-05-16T12:02:35.495Z,990.19
2023-05-16T12:03:35.606Z,990.19
2023-05-16T12:04:35.545Z,990.27
2023-05-16T12:05:35.946Z,990.15
2023-05-16T12:06:35.377Z,990.28
2023-05-16T12:07:35.386Z,990.27
2023-05-16T12:08:35.375Z,990.27
2023-05-16T12:09:35.378Z,990.23
2023-05-16T12:10:35.360Z,990.34
2023-05-16T12:11:35.330Z,990.35
2023-05-16T12:12:35.324Z,990.33
2023-05-16T12:13:35.316Z,990.28
2023-05-16T12:14:35.309Z,990.31
2023-05-16T12:15:35.334Z,990.33
2023-05-16T12:16:35.328Z,990.45
2023-05-16T12:17:35.360Z,990.45
2023-05-16T12:18:35.396Z,990.44
2023-05-16T12:19:35.290Z,990.44
2023-05-16T12:20:35.257Z,990.39
2023-05-16T12:21:35.237Z,990.40
2023-05-16T12:22:35.243Z,990.31
2023-05-16T12:23:35.253Z,990.30
2023-05-16T12:24:35.206Z,990.31
2023-05-16T12:25:35.196Z,990.51
2023-05-16T12:26:35.176Z,990.36
2023-05-16T12:27:35.178Z,990.42
2023-05-16T12:28:35.203Z,990.45
2023-05-16T12:29:35.163Z,990.47